createdAt,value
2019-05-26T05:24:34.866Z,575
2019-05-26T05:25:34.831Z,600
2019-05-26T05:26:34.828Z,640
2019-05-26T05:27:34.812Z,625
2019-05-26T05:28:34.810Z,605
2019-05-26T05:29:34.974Z,590
2019-05-26T05:30:34.912Z,590
2019-05-26T05:31:34.807Z,590
2019-05-26T05:32:37.683Z,610
2019-05-26T05:33:34.795Z,605
2019-05-26T05:34:34.825Z,505
2019-05-26T05:35:34.793Z,560
2019-05-26T05:36:34.841Z,640
2019-05-26T05:37:34.852Z,770
2019-05-26T05:38:34.788Z,820
2019-05-26T05:39:34.557Z,840
2019-05-26T05:40:34.801Z,800
2019-05-26T05:41:34.780Z,810
2019-05-26T05:42:34.780Z,900
2019-05-26T05:43:34.784Z,940
2019-05-26T05:44:34.787Z,965
2019-05-26T05:45:34.776Z,1030
2019-05-26T05:46:34.785Z,1035
2019-05-26T05:47:34.791Z,1020
2019-05-26T05:48:34.787Z,1070
2019-05-26T05:49:34.816Z,1135
2019-05-26T05:50:34.567Z,1105
2019-05-26T05:51:34.786Z,1250
2019-05-26T05:52:34.805Z,1295
2019-05-26T05:53:34.794Z,1245
2019-05-26T05:54:34.799Z,1190
2019-05-26T05:55:34.805Z,1130
2019-05-26T05:56:34.826Z,1120
2019-05-26T05:57:34.824Z,1200
2019-05-26T05:58:34.830Z,1085
2019-05-26T05:59:34.843Z,1080
2019-05-26T06:00:34.830Z,1160
2019-05-26T06:01:34.849Z,1200
2019-05-26T06:02:34.864Z,1050
2019-05-26T06:03:34.855Z,1005
2019-05-26T06:04:34.883Z,965
2019-05-26T06:05:34.867Z,1080
2019-05-26T06:06:34.872Z,1085
2019-05-26T06:07:34.898Z,955
2019-05-26T06:08:34.889Z,1020
2019-05-26T06:09:34.923Z,1110
2019-05-26T06:10:34.903Z,1110
2019-05-26T06:11:34.914Z,1140
2019-05-26T06:12:34.914Z,1085
2019-05-26T06:13:34.934Z,1015
2019-05-26T06:14:35.261Z,980
2019-05-26T06:15:34.936Z,990
2019-05-26T06:16:34.779Z,940
2019-05-26T06:17:34.758Z,980
2019-05-26T06:18:34.972Z,950
2019-05-26T06:19:34.971Z,1035
2019-05-26T06:20:34.988Z,980
2019-05-26T06:21:34.986Z,965
2019-05-26T06:22:35.000Z,920
2019-05-26T06:23:39.089Z,1050
2019-05-26T06:24:35.015Z,1025
2019-05-26T06:25:35.044Z,1015
2019-05-26T06:26:35.022Z,1020
2019-05-26T06:27:35.042Z,1030
2019-05-26T06:28:35.041Z,1080
2019-05-26T06:29:35.062Z,1100
2019-05-26T06:30:35.064Z,1070
2019-05-26T06:31:35.235Z,1080
2019-05-26T06:32:35.070Z,1090
2019-05-26T06:33:35.092Z,1145
2019-05-26T06:34:35.088Z,1210
2019-05-26T06:35:37.508Z,1215
2019-05-26T06:36:35.111Z,1275
2019-05-26T06:37:35.115Z,1245
2019-05-26T06:38:35.160Z,1245
2019-05-26T06:39:35.133Z,1265
2019-05-26T06:40:35.185Z,1295
2019-05-26T06:41:43.045Z,1250
2019-05-26T06:42:35.177Z,1285
2019-05-26T06:43:35.168Z,1310
2019-05-26T06:44:50.314Z,1295
2019-05-26T06:45:35.180Z,1300
2019-05-26T06:46:35.193Z,1400
2019-05-26T06:47:35.235Z,1440
2019-05-26T06:48:36.490Z,1445
2019-05-26T06:49:35.231Z,1425
2019-05-26T06:50:35.226Z,1425
2019-05-26T06:51:35.240Z,1390
2019-05-26T06:52:35.255Z,1450
2019-05-26T06:53:39.607Z,1450
2019-05-26T06:54:35.266Z,1390
2019-05-26T06:55:35.343Z,1350
2019-05-26T06:56:35.284Z,1200
2019-05-26T06:57:35.295Z,1240
2019-05-26T06:58:35.305Z,1570
2019-05-26T06:59:35.308Z,1630
2019-05-26T07:00:35.331Z,1645
2019-05-26T07:01:35.340Z,1610
2019-05-26T07:02:35.370Z,1155
2019-05-26T07:03:35.352Z,1370
2019-05-26T07:04:35.369Z,1665
2019-05-26T07:05:35.383Z,1650
2019-05-26T07:06:35.379Z,1695
2019-05-26T07:07:35.402Z,1715
2019-05-26T07:08:35.404Z,1720
2019-05-26T07:09:35.169Z,1860
2019-05-26T07:10:35.367Z,1850
2019-05-26T07:11:58.975Z,1890
2019-05-26T07:12:35.441Z,1880
2019-05-26T07:13:35.461Z,1910
2019-05-26T07:14:35.227Z,1785
2019-05-26T07:15:35.500Z,1820
2019-05-26T07:16:47.109Z,1710
2019-05-26T07:17:35.528Z,1465
2019-05-26T07:18:35.515Z,1620
2019-05-26T07:19:35.539Z,1725
2019-05-26T07:20:35.544Z,1670
2019-05-26T07:21:35.555Z,1655
2019-05-26T07:22:35.594Z,1685
2019-05-26T07:23:35.577Z,1710
2019-05-26T07:24:38.600Z,1790
2019-05-26T07:25:35.590Z,1785
2019-05-26T07:26:35.626Z,1745
2019-05-26T07:27:35.612Z,1840
2019-05-26T07:28:35.638Z,1845
2019-05-26T07:29:35.646Z,1455
2019-05-26T07:30:35.661Z,1425
2019-05-26T07:31:35.662Z,1555
2019-05-26T07:32:35.745Z,1660
2019-05-26T07:33:35.704Z,1695
2019-05-26T07:34:35.702Z,1730
2019-05-26T07:35:37.860Z,1645
2019-05-26T07:36:35.735Z,1940
2019-05-26T07:37:35.738Z,1790
2019-05-26T07:38:35.753Z,1790
2019-05-26T07:39:35.806Z,1690
2019-05-26T07:40:35.776Z,1610
2019-05-26T07:41:35.545Z,1575
2019-05-26T07:42:35.821Z,1550
2019-05-26T07:43:37.702Z,1365
2019-05-26T07:44:35.849Z,1615
2019-05-26T07:45:35.887Z,1560
2019-05-26T07:46:35.845Z,1570
2019-05-26T07:47:35.863Z,1590
2019-05-26T07:48:40.306Z,1610
2019-05-26T07:49:35.889Z,1725
2019-05-26T07:50:35.890Z,1795
2019-05-26T07:51:35.913Z,1770
2019-05-26T07:52:35.789Z,1740
2019-05-26T07:53:35.943Z,1865
2019-05-26T07:54:35.945Z,1795
2019-05-26T07:55:35.964Z,1705
2019-05-26T07:56:35.969Z,1740
2019-05-26T07:57:35.988Z,1645
2019-05-26T07:58:35.993Z,1675
2019-05-26T07:59:35.775Z,1655
2019-05-26T08:00:36.044Z,1745
2019-05-26T08:01:45.219Z,1970
2019-05-26T08:02:36.050Z,2110
2019-05-26T08:03:36.090Z,2170
2019-05-26T08:04:35.823Z,2255
2019-05-26T08:05:36.101Z,2045
2019-05-26T08:06:36.097Z,2000
2019-05-26T08:07:35.864Z,1875
2019-05-26T08:08:36.121Z,1945
2019-05-26T08:09:36.184Z,2070
2019-05-26T08:10:36.142Z,2150
2019-05-26T08:11:36.185Z,1945
2019-05-26T08:12:40.043Z,1820
2019-05-26T08:13:36.183Z,1785
2019-05-26T08:14:36.205Z,1680
2019-05-26T08:15:36.207Z,1565
2019-05-26T08:16:36.387Z,1435
2019-05-26T08:17:36.232Z,1395
2019-05-26T08:18:36.250Z,1365
2019-05-26T08:19:36.272Z,1370
2019-05-26T08:20:36.272Z,1395
2019-05-26T08:21:36.279Z,1415
2019-05-26T08:22:36.335Z,1450
2019-05-26T08:23:36.311Z,1385
2019-05-26T08:24:36.318Z,1360
2019-05-26T08:25:36.323Z,1335
2019-05-26T08:26:36.333Z,1330
2019-05-26T08:27:36.373Z,1350
2019-05-26T08:28:36.360Z,1335
2019-05-26T08:29:36.377Z,1275
2019-05-26T08:30:36.390Z,1260
2019-05-26T08:31:36.393Z,1310
2019-05-26T08:32:36.401Z,1290
2019-05-26T08:33:36.415Z,1275
2019-05-26T08:34:36.421Z,1270
2019-05-26T08:35:36.462Z,1300
2019-05-26T08:36:36.436Z,1285
2019-05-26T08:37:36.446Z,1290
2019-05-26T08:38:36.470Z,1285
2019-05-26T08:39:36.473Z,1290
2019-05-26T08:40:36.494Z,1200
2019-05-26T08:41:36.493Z,1245
2019-05-26T08:42:52.037Z,1320
2019-05-26T08:43:36.520Z,1375
2019-05-26T08:44:36.517Z,1385
2019-05-26T08:45:36.545Z,1415
2019-05-26T08:46:36.542Z,1405
2019-05-26T08:47:36.554Z,1330
2019-05-26T08:48:36.581Z,1165
2019-05-26T08:49:36.566Z,955
2019-05-26T08:50:39.158Z,825
2019-05-26T08:51:36.577Z,800
2019-05-26T08:52:36.608Z,805
2019-05-26T08:53:36.591Z,795
2019-05-26T08:54:36.628Z,790
2019-05-26T08:55:36.605Z,780
2019-05-26T08:56:36.642Z,775
2019-05-26T08:57:36.633Z,765
2019-05-26T08:58:38.819Z,760
2019-05-26T08:59:36.645Z,750
2019-05-26T09:00:36.730Z,745
2019-05-26T09:01:36.660Z,735
2019-05-26T09:02:36.778Z,730
2019-05-26T09:03:36.669Z,725
2019-05-26T09:04:36.444Z,725
2019-05-26T09:05:36.780Z,725
2019-05-26T09:06:36.453Z,730
2019-05-26T09:07:36.701Z,720
2019-05-26T09:08:36.706Z,725
2019-05-26T09:09:36.732Z,725
2019-05-26T09:10:36.711Z,730
2019-05-26T09:11:36.733Z,730
2019-05-26T09:12:36.733Z,730
2019-05-26T09:13:36.731Z,720
2019-05-26T09:14:36.732Z,710
2019-05-26T09:15:36.744Z,695
2019-05-26T09:16:36.507Z,690
2019-05-26T09:17:36.764Z,690
2019-05-26T09:18:36.765Z,680
2019-05-26T09:19:36.770Z,680
2019-05-26T09:20:36.771Z,675
2019-05-26T09:21:36.845Z,675
2019-05-26T09:22:36.596Z,680
2019-05-26T09:23:36.784Z,675
2019-05-26T09:24:36.812Z,675
2019-05-26T09:25:36.789Z,675
2019-05-26T09:26:36.816Z,670
2019-05-26T09:27:40.570Z,665
2019-05-26T09:28:36.814Z,675
2019-05-26T09:29:39.358Z,655
2019-05-26T09:30:36.814Z,650
2019-05-26T09:31:38.924Z,640
2019-05-26T09:32:36.820Z,640
2019-05-26T09:34:36.843Z,595
2019-05-26T09:35:36.833Z,615
2019-05-26T09:36:39.410Z,650
2019-05-26T09:37:36.855Z,630
2019-05-26T09:38:36.854Z,630
2019-05-26T09:39:36.849Z,620
2019-05-26T09:40:36.891Z,610
2019-05-26T09:41:36.885Z,630
2019-05-26T09:42:36.854Z,605
2019-05-26T09:43:36.864Z,625
2019-05-26T09:44:36.869Z,685
2019-05-26T09:45:39.418Z,635
2019-05-26T09:46:39.429Z,600
2019-05-26T09:47:36.883Z,600
2019-05-26T09:48:49.608Z,600
2019-05-26T09:49:36.884Z,600
2019-05-26T09:50:36.943Z,605
2019-05-26T09:51:36.891Z,640
2019-05-26T09:52:37.018Z,655
2019-05-26T09:54:38.117Z,630
2019-05-26T09:55:36.905Z,600
2019-05-26T09:56:36.918Z,570
2019-05-26T09:57:36.916Z,555
2019-05-26T09:58:36.929Z,580
2019-05-26T09:59:36.936Z,630
2019-05-26T10:00:36.689Z,615
2019-05-26T10:01:36.920Z,590
2019-05-26T10:02:36.922Z,565
2019-05-26T10:03:36.927Z,560
2019-05-26T10:04:36.931Z,570
2019-05-26T10:05:36.932Z,565
2019-05-26T10:06:36.944Z,555
2019-05-26T10:07:36.943Z,580
2019-05-26T10:08:36.944Z,580
2019-05-26T10:09:37.027Z,580
2019-05-26T10:10:37.021Z,585
2019-05-26T10:11:36.952Z,595
2019-05-26T10:12:36.960Z,605
2019-05-26T10:13:41.380Z,600
2019-05-26T10:14:36.721Z,610
2019-05-26T10:15:36.970Z,595
2019-05-26T10:16:36.980Z,595
2019-05-26T10:17:36.979Z,605
2019-05-26T10:18:36.977Z,600
2019-05-26T10:19:36.984Z,580
2019-05-26T10:20:36.984Z,570
2019-05-26T10:21:36.982Z,565
2019-05-26T10:22:36.975Z,550
2019-05-26T10:23:36.983Z,565
2019-05-26T10:24:36.984Z,565
2019-05-26T10:25:36.985Z,580
2019-05-26T10:26:36.991Z,610
2019-05-26T10:27:37.047Z,640
2019-05-26T10:28:37.017Z,710
2019-05-26T10:29:37.000Z,705
2019-05-26T10:30:36.756Z,655
2019-05-26T10:31:37.029Z,655
2019-05-26T10:32:37.021Z,675
2019-05-26T10:33:37.034Z,710
2019-05-26T10:34:37.011Z,680
2019-05-26T10:35:36.780Z,655
2019-05-26T10:36:37.019Z,675
2019-05-26T10:37:37.024Z,685
2019-05-26T10:38:37.048Z,655
2019-05-26T10:39:37.033Z,630
2019-05-26T10:40:37.032Z,630
2019-05-26T10:41:37.052Z,695
2019-05-26T10:42:37.037Z,690
2019-05-26T10:43:50.892Z,710
2019-05-26T10:44:37.048Z,715
2019-05-26T10:45:41.201Z,690
2019-05-26T10:46:37.064Z,625
2019-05-26T10:47:37.065Z,620
2019-05-26T10:48:37.064Z,645
2019-05-26T10:49:37.064Z,660
2019-05-26T10:50:37.125Z,665
2019-05-26T10:51:37.079Z,670
2019-05-26T10:52:36.839Z,685
2019-05-26T10:53:36.589Z,665
2019-05-26T10:54:37.144Z,640
2019-05-26T10:55:37.090Z,635
2019-05-26T10:56:37.189Z,625
2019-05-26T10:57:37.140Z,645
2019-05-26T10:58:37.106Z,625
2019-05-26T10:59:38.432Z,625
2019-05-26T11:01:37.108Z,640
2019-05-26T11:02:38.766Z,645
2019-05-26T11:03:37.132Z,625
2019-05-26T11:04:37.125Z,620
2019-05-26T11:05:37.122Z,580
2019-05-26T11:06:37.130Z,620
2019-05-26T11:07:37.141Z,685
2019-05-26T11:08:37.134Z,680
2019-05-26T11:09:37.185Z,670
2019-05-26T11:10:37.142Z,655
2019-05-26T11:11:37.148Z,655
2019-05-26T11:12:37.149Z,605
2019-05-26T11:13:40.525Z,575
2019-05-26T11:14:37.153Z,570
2019-05-26T11:15:37.164Z,560
2019-05-26T11:16:37.181Z,555
2019-05-26T11:17:37.165Z,565
2019-05-26T11:18:37.219Z,550
2019-05-26T11:19:37.180Z,525
2019-05-26T11:20:37.185Z,515
2019-05-26T11:21:37.188Z,565
2019-05-26T11:22:37.202Z,520
2019-05-26T11:23:36.737Z,480
2019-05-26T11:24:37.201Z,465
2019-05-26T11:25:37.204Z,455
2019-05-26T11:26:37.205Z,465
2019-05-26T11:27:37.203Z,480
2019-05-26T11:28:37.246Z,480
2019-05-26T11:29:37.217Z,455
2019-05-26T11:30:37.215Z,450
2019-05-26T11:31:36.979Z,450
2019-05-26T11:32:37.310Z,460
2019-05-26T11:33:37.226Z,455
2019-05-26T11:34:37.297Z,480
2019-05-26T11:35:37.240Z,510
2019-05-26T11:36:37.235Z,560
2019-05-26T11:37:37.235Z,625
2019-05-26T11:38:40.767Z,665
2019-05-26T11:39:37.246Z,645
2019-05-26T11:40:37.293Z,680
2019-05-26T11:41:37.256Z,720
2019-05-26T11:42:37.262Z,715
2019-05-26T11:43:37.276Z,725
2019-05-26T11:44:37.264Z,745
2019-05-26T11:45:37.266Z,720
2019-05-26T11:46:37.294Z,725
2019-05-26T11:47:37.267Z,715
2019-05-26T11:48:39.240Z,710
2019-05-26T11:49:37.350Z,690
2019-05-26T11:50:37.356Z,715
2019-05-26T11:51:37.311Z,730
2019-05-26T11:52:37.283Z,700
2019-05-26T11:53:37.293Z,600
2019-05-26T11:54:39.429Z,520
2019-05-26T11:55:37.446Z,530
2019-05-26T11:56:37.306Z,605
2019-05-26T11:57:40.984Z,685
2019-05-26T11:58:37.356Z,750
2019-05-26T11:59:37.309Z,775
2019-05-26T12:00:37.321Z,780
2019-05-26T12:01:37.078Z,760
2019-05-26T12:02:37.320Z,735
2019-05-26T12:03:37.325Z,675
2019-05-26T12:04:37.344Z,630
2019-05-26T12:05:37.338Z,575
2019-05-26T12:06:37.337Z,570
2019-05-26T12:07:37.352Z,600
2019-05-26T12:08:37.351Z,605
2019-05-26T12:09:37.396Z,605
2019-05-26T12:10:37.360Z,595
2019-05-26T12:11:37.360Z,580
2019-05-26T12:12:37.366Z,565
2019-05-26T12:13:39.164Z,550
2019-05-26T12:14:44.611Z,525
2019-05-26T12:15:37.378Z,505
2019-05-26T12:16:38.457Z,490
2019-05-26T12:17:37.385Z,480
2019-05-26T12:18:37.397Z,505
2019-05-26T12:19:37.397Z,515
2019-05-26T12:20:37.460Z,485
2019-05-26T12:21:37.410Z,495
2019-05-26T12:22:37.409Z,535
2019-05-26T12:23:37.415Z,575
2019-05-26T12:24:37.415Z,585
2019-05-26T12:25:37.424Z,585
2019-05-26T12:26:37.430Z,575
2019-05-26T12:27:37.423Z,605
2019-05-26T12:28:37.424Z,605
2019-05-26T12:29:37.482Z,590
2019-05-26T12:30:37.449Z,580
2019-05-26T12:31:37.438Z,590
2019-05-26T12:32:37.445Z,600
2019-05-26T12:33:37.202Z,605
2019-05-26T12:34:37.460Z,600
2019-05-26T12:35:37.455Z,615
2019-05-26T12:36:41.658Z,610
2019-05-26T12:37:37.463Z,600
2019-05-26T12:38:37.506Z,590
2019-05-26T12:39:37.471Z,590
2019-05-26T12:40:37.469Z,585
2019-05-26T12:41:42.151Z,560
2019-05-26T12:42:37.483Z,540
2019-05-26T12:43:37.486Z,525
2019-05-26T12:44:51.391Z,525
2019-05-26T12:45:37.252Z,525
2019-05-26T12:46:37.512Z,535
2019-05-26T12:47:37.530Z,570
2019-05-26T12:48:37.501Z,610
2019-05-26T12:49:37.346Z,590
2019-05-26T12:50:37.531Z,570
2019-05-26T12:51:37.532Z,555
2019-05-26T12:52:37.516Z,555
2019-05-26T12:53:37.520Z,555
2019-05-26T12:54:37.529Z,605
2019-05-26T12:55:37.532Z,620
2019-05-26T12:56:37.535Z,615
2019-05-26T12:57:37.574Z,605
2019-05-26T12:58:37.547Z,590
2019-05-26T12:59:37.546Z,565
2019-05-26T13:00:59.518Z,540
2019-05-26T13:01:37.557Z,525
2019-05-26T13:02:37.602Z,530
2019-05-26T13:03:37.552Z,530
2019-05-26T13:04:37.566Z,540
2019-05-26T13:05:37.588Z,565
2019-05-26T13:06:37.627Z,585
2019-05-26T13:07:37.599Z,610
2019-05-26T13:08:37.600Z,625
2019-05-26T13:09:37.584Z,635
2019-05-26T13:10:37.586Z,640
2019-05-26T13:11:37.597Z,655
2019-05-26T13:12:37.615Z,650
2019-05-26T13:13:37.662Z,660
2019-05-26T13:14:37.596Z,665
2019-05-26T13:15:37.603Z,670
2019-05-26T13:16:40.612Z,665
2019-05-26T13:17:37.613Z,650
2019-05-26T13:18:37.631Z,640
2019-05-26T13:19:37.639Z,630
2019-05-26T13:20:37.703Z,620
2019-05-26T13:21:37.630Z,615
2019-05-26T13:22:38.086Z,605
2019-05-26T13:23:37.641Z,600
2019-05-26T13:24:37.643Z,595
2019-05-26T13:25:37.651Z,605
2019-05-26T13:26:37.645Z,600
2019-05-26T13:27:37.649Z,600
2019-05-26T13:28:37.409Z,590
2019-05-26T13:29:37.719Z,585
2019-05-26T13:30:37.660Z,580
2019-05-26T13:31:37.666Z,580
2019-05-26T13:32:37.671Z,585
2019-05-26T13:33:37.674Z,580
2019-05-26T13:34:40.486Z,575
2019-05-26T13:35:37.445Z,580
2019-05-26T13:36:37.746Z,575
2019-05-26T13:37:37.744Z,580
2019-05-26T13:38:37.694Z,585
2019-05-26T13:39:37.703Z,590
2019-05-26T13:40:39.156Z,595
2019-05-26T13:41:37.724Z,595
2019-05-26T13:42:37.720Z,595
2019-05-26T13:43:37.733Z,585
2019-05-26T13:44:37.728Z,575
2019-05-26T13:45:40.909Z,555
2019-05-26T13:46:37.737Z,545
2019-05-26T13:47:37.761Z,535
2019-05-26T13:48:37.796Z,535
2019-05-26T13:49:37.764Z,535
2019-05-26T13:50:37.571Z,540
2019-05-26T13:51:37.747Z,540
2019-05-26T13:52:37.763Z,545
2019-05-26T13:53:37.764Z,545
2019-05-26T13:54:37.756Z,545
2019-05-26T13:55:37.529Z,545
2019-05-26T13:56:37.816Z,540
2019-05-26T13:57:37.774Z,540
2019-05-26T13:58:37.777Z,545
2019-05-26T13:59:37.847Z,550
2019-05-26T14:00:37.792Z,565
2019-05-26T14:01:37.785Z,575
2019-05-26T14:02:37.811Z,580
2019-05-26T14:03:37.551Z,585
2019-05-26T14:04:37.798Z,590
2019-05-26T14:05:37.813Z,580
2019-05-26T14:06:37.826Z,580
2019-05-26T14:07:37.579Z,575
2019-05-26T14:08:37.827Z,570
2019-05-26T14:09:37.814Z,565
2019-05-26T14:10:37.822Z,555
2019-05-26T14:11:37.633Z,545
2019-05-26T14:12:37.914Z,540
2019-05-26T14:13:37.599Z,540
2019-05-26T14:14:37.841Z,545
2019-05-26T14:15:46.930Z,570
2019-05-26T14:16:37.604Z,585
2019-05-26T14:17:37.894Z,580
2019-05-26T14:18:37.878Z,560
2019-05-26T14:19:37.617Z,535
2019-05-26T14:20:37.874Z,520
2019-05-26T14:21:37.634Z,515
2019-05-26T14:22:37.878Z,515
2019-05-26T14:23:37.872Z,520
2019-05-26T14:24:50.807Z,525
2019-05-26T14:25:37.879Z,525
2019-05-26T14:26:37.894Z,530
2019-05-26T14:27:37.884Z,535
2019-05-26T14:28:37.884Z,540
2019-05-26T14:29:37.903Z,535
2019-05-26T14:30:37.904Z,530
2019-05-26T14:31:37.897Z,540
2019-05-26T14:32:37.904Z,545
2019-05-26T14:33:37.675Z,550
2019-05-26T14:34:37.914Z,555
2019-05-26T14:35:37.674Z,560
2019-05-26T14:36:37.952Z,565
2019-05-26T14:37:37.702Z,560
2019-05-26T14:38:52.296Z,550
2019-05-26T14:39:37.925Z,540
2019-05-26T14:40:38.007Z,515
2019-05-26T14:41:37.940Z,495
2019-05-26T14:42:37.948Z,480
2019-05-26T14:43:37.943Z,470
2019-05-26T14:44:37.964Z,460
2019-05-26T14:45:52.233Z,450
2019-05-26T14:46:37.957Z,450
2019-05-26T14:47:37.965Z,450
2019-05-26T14:48:37.977Z,455
2019-05-26T14:49:37.963Z,475
2019-05-26T14:50:40.577Z,490
2019-05-26T14:51:37.990Z,490
2019-05-26T14:52:37.973Z,500
2019-05-26T14:53:38.017Z,510
2019-05-26T14:54:37.999Z,510
2019-05-26T14:55:37.984Z,515
2019-05-26T14:56:37.991Z,525
2019-05-26T14:57:40.475Z,540
2019-05-26T14:58:37.994Z,535
2019-05-26T14:59:38.037Z,530
2019-05-26T15:00:37.524Z,525
2019-05-26T15:01:38.010Z,520
2019-05-26T15:02:37.541Z,515
2019-05-26T15:03:37.777Z,515
2019-05-26T15:04:40.677Z,520
2019-05-26T15:05:38.018Z,525
2019-05-26T15:06:38.028Z,530
2019-05-26T15:07:38.026Z,525
2019-05-26T15:08:38.028Z,515
2019-05-26T15:09:37.794Z,495
2019-05-26T15:10:38.053Z,480
2019-05-26T15:11:38.045Z,460
2019-05-26T15:12:38.052Z,445
2019-05-26T15:13:38.044Z,425
2019-05-26T15:14:38.050Z,415
2019-05-26T15:15:39.914Z,410
2019-05-26T15:16:38.116Z,410
2019-05-26T15:17:38.142Z,415
2019-05-26T15:18:38.064Z,420
2019-05-26T15:19:38.068Z,425
2019-05-26T15:20:38.069Z,430
2019-05-26T15:21:38.124Z,435
2019-05-26T15:22:38.082Z,435
2019-05-26T15:23:38.079Z,435
2019-05-26T15:24:38.088Z,445
2019-05-26T15:25:38.089Z,445
2019-05-26T15:26:38.087Z,440
2019-05-26T15:27:38.112Z,445
2019-05-26T15:28:38.098Z,450
2019-05-26T15:29:38.216Z,450
2019-05-26T15:30:38.105Z,450
2019-05-26T15:31:38.120Z,435
2019-05-26T15:32:38.123Z,420
2019-05-26T15:33:38.107Z,410
2019-05-26T15:34:38.131Z,400
2019-05-26T15:35:38.113Z,390
2019-05-26T15:36:38.126Z,390
2019-05-26T15:37:38.121Z,400
2019-05-26T15:38:51.823Z,405
2019-05-26T15:39:38.128Z,405
2019-05-26T15:40:37.692Z,400
2019-05-26T15:41:38.127Z,385
2019-05-26T15:42:38.157Z,375
2019-05-26T15:43:38.137Z,370
2019-05-26T15:44:38.138Z,360
2019-05-26T15:45:38.145Z,350
2019-05-26T15:46:38.150Z,350
2019-05-26T15:47:38.146Z,345
2019-05-26T15:48:38.156Z,340
2019-05-26T15:49:38.155Z,345
2019-05-26T15:50:38.168Z,350
2019-05-26T15:51:38.158Z,355
2019-05-26T15:52:38.217Z,345
2019-05-26T15:53:38.155Z,340
2019-05-26T15:54:38.162Z,335
2019-05-26T15:55:42.201Z,340
2019-05-26T15:56:37.934Z,345
2019-05-26T15:57:38.218Z,350
2019-05-26T15:58:38.198Z,355
2019-05-26T15:59:38.363Z,360
2019-05-26T16:00:38.173Z,365
2019-05-26T16:01:38.243Z,365
2019-05-26T16:02:38.182Z,355
2019-05-26T16:03:38.185Z,350
2019-05-26T16:04:38.191Z,345
2019-05-26T16:05:38.188Z,330
2019-05-26T16:06:38.207Z,315
2019-05-26T16:07:38.194Z,300
2019-05-26T16:08:37.961Z,295
2019-05-26T16:09:38.254Z,305
2019-05-26T16:10:38.195Z,325
2019-05-26T16:11:38.206Z,340
2019-05-26T16:12:38.250Z,350
2019-05-26T16:13:38.198Z,350
2019-05-26T16:14:38.206Z,340
2019-05-26T16:15:38.227Z,325
2019-05-26T16:16:53.655Z,310
2019-05-26T16:17:41.234Z,290
2019-05-26T16:18:38.281Z,270
2019-05-26T16:19:38.231Z,250
2019-05-26T16:20:38.330Z,235
2019-05-26T16:21:38.225Z,215
2019-05-26T16:22:38.218Z,205
2019-05-26T16:23:38.219Z,205
2019-05-26T16:24:38.232Z,200
2019-05-26T16:25:38.224Z,200
2019-05-26T16:26:38.268Z,200
2019-05-26T16:27:38.231Z,200
2019-05-26T16:28:38.683Z,205
2019-05-26T16:29:38.228Z,210
2019-05-26T16:30:38.268Z,215
2019-05-26T16:31:38.253Z,220
2019-05-26T16:32:38.243Z,225
2019-05-26T16:33:38.030Z,230
2019-05-26T16:34:38.236Z,235
2019-05-26T16:35:38.242Z,240
2019-05-26T16:36:38.259Z,245
2019-05-26T16:37:38.278Z,250
2019-05-26T16:38:38.437Z,260
2019-05-26T16:39:46.538Z,270
2019-05-26T16:40:38.240Z,270
2019-05-26T16:41:38.244Z,265
2019-05-26T16:42:38.255Z,260
2019-05-26T16:43:38.246Z,250
2019-05-26T16:44:38.265Z,245
2019-05-26T16:45:57.613Z,235
2019-05-26T16:46:38.247Z,225
2019-05-26T16:47:38.003Z,225
2019-05-26T16:48:38.069Z,225
2019-05-26T16:49:38.254Z,220
2019-05-26T16:50:38.679Z,220
2019-05-26T16:51:38.252Z,220
2019-05-26T16:52:38.254Z,220
2019-05-26T16:53:38.257Z,225
2019-05-26T16:54:38.025Z,230
2019-05-26T16:55:38.300Z,240
2019-05-26T16:56:38.250Z,240
2019-05-26T16:57:38.252Z,255
2019-05-26T16:58:38.249Z,260
2019-05-26T16:59:38.250Z,270
2019-05-26T17:00:38.277Z,280
2019-05-26T17:01:38.017Z,285
2019-05-26T17:02:38.266Z,285
2019-05-26T17:03:38.262Z,290
2019-05-26T17:04:38.012Z,290
2019-05-26T17:05:38.253Z,285
2019-05-26T17:06:38.247Z,280
2019-05-26T17:07:38.261Z,265
2019-05-26T17:08:38.252Z,245
2019-05-26T17:09:38.022Z,230
2019-05-26T17:10:38.268Z,215
2019-05-26T17:11:38.273Z,195
2019-05-26T17:12:38.259Z,195
2019-05-26T17:13:40.288Z,185
2019-05-26T17:14:38.254Z,180
2019-05-26T17:15:38.271Z,170
2019-05-26T17:16:38.316Z,160
2019-05-26T17:17:38.254Z,160
2019-05-26T17:18:38.255Z,160
2019-05-26T17:19:38.315Z,155
2019-05-26T17:20:38.265Z,150
2019-05-26T17:21:38.254Z,150
2019-05-26T17:22:38.023Z,145
2019-05-26T17:23:38.257Z,145
2019-05-26T17:24:38.256Z,145
2019-05-26T17:25:38.265Z,140
2019-05-26T17:26:38.259Z,140
2019-05-26T17:27:38.263Z,135
2019-05-26T17:28:38.288Z,130
2019-05-26T17:29:38.275Z,135
2019-05-26T17:31:42.076Z,120
2019-05-26T17:32:43.291Z,120
2019-05-26T17:33:38.046Z,115
2019-05-26T17:34:38.272Z,115
2019-05-26T17:35:38.309Z,115
2019-05-26T17:36:38.249Z,115
2019-05-26T17:37:39.698Z,115
2019-05-26T17:38:53.734Z,115
2019-05-26T17:39:43.074Z,110
2019-05-26T17:40:42.071Z,110
2019-05-26T17:41:40.796Z,110
2019-05-26T17:42:43.343Z,105
2019-05-26T17:43:41.212Z,100
2019-05-26T17:44:58.272Z,100
2019-05-26T17:45:40.929Z,95
2019-05-26T17:46:38.235Z,95
2019-05-26T17:47:40.164Z,90
2019-05-26T17:48:38.240Z,90
2019-05-26T17:49:38.257Z,90
2019-05-26T17:50:38.246Z,85
2019-05-26T17:51:38.035Z,85
2019-05-26T17:52:38.278Z,85
2019-05-26T17:53:38.239Z,85
2019-05-26T17:54:38.225Z,85
2019-05-26T17:55:38.231Z,85
2019-05-26T17:56:38.220Z,85
2019-05-26T17:57:41.765Z,80
2019-05-26T17:58:37.978Z,80
2019-05-26T17:59:37.975Z,80
2019-05-26T18:00:38.286Z,80
2019-05-26T18:01:38.214Z,80
2019-05-26T18:02:38.320Z,80
2019-05-26T18:03:38.209Z,80
2019-05-26T18:04:38.201Z,75
2019-05-26T18:05:38.216Z,75
2019-05-26T18:06:38.216Z,75
2019-05-26T18:07:38.197Z,75
2019-05-26T18:08:41.201Z,75
2019-05-26T18:09:53.141Z,70
2019-05-26T18:10:38.203Z,70
2019-05-26T18:11:38.267Z,70
2019-05-26T18:12:38.189Z,65
2019-05-26T18:13:38.255Z,65
2019-05-26T18:14:38.209Z,65
2019-05-26T18:15:38.189Z,65
2019-05-26T18:16:37.971Z,65
2019-05-26T18:17:53.437Z,65
2019-05-26T18:18:38.181Z,65
2019-05-26T18:19:39.255Z,65
2019-05-26T18:20:38.178Z,65
2019-05-26T18:21:38.175Z,65
2019-05-26T18:22:37.937Z,65
2019-05-26T18:23:38.183Z,65
2019-05-26T18:24:38.163Z,65
2019-05-26T18:25:37.915Z,65
2019-05-26T18:26:38.161Z,60
2019-05-26T18:27:37.914Z,60
2019-05-26T18:28:38.152Z,55
2019-05-26T18:29:38.143Z,55
2019-05-26T18:30:38.143Z,50
2019-05-26T18:31:38.900Z,45
2019-05-26T18:32:38.147Z,45
2019-05-26T18:33:38.149Z,40
2019-05-26T18:34:38.143Z,40
2019-05-26T18:35:38.128Z,40
2019-05-26T18:36:38.161Z,35
2019-05-26T18:37:37.912Z,35
2019-05-26T18:38:38.124Z,35
2019-05-26T18:39:38.369Z,35
2019-05-26T18:40:38.125Z,30
2019-05-26T18:41:38.126Z,30
2019-05-26T18:42:38.121Z,30
2019-05-26T18:43:38.115Z,30
2019-05-26T18:44:38.117Z,25
2019-05-26T18:45:38.110Z,25
2019-05-26T18:46:38.111Z,25
2019-05-26T18:47:37.854Z,25
2019-05-26T18:48:38.101Z,25
2019-05-26T18:49:38.118Z,20
2019-05-26T18:50:38.092Z,20
2019-05-26T18:51:38.163Z,20
2019-05-26T18:52:37.842Z,20
2019-05-26T18:53:39.094Z,20
2019-05-26T18:54:37.837Z,20
2019-05-26T18:55:38.075Z,15
2019-05-26T18:56:38.069Z,15
2019-05-26T18:57:37.833Z,15
2019-05-26T18:58:38.095Z,15
2019-05-26T18:59:38.062Z,15
2019-05-26T19:00:40.900Z,10
2019-05-26T19:01:38.050Z,10
2019-05-26T19:02:38.053Z,10
2019-05-26T19:03:38.044Z,10
2019-05-26T19:04:38.077Z,10
2019-05-26T19:05:45.792Z,10
2019-05-26T19:06:38.040Z,5
2019-05-26T19:07:38.042Z,5
2019-05-26T19:08:38.032Z,5
2019-05-26T19:09:37.796Z,5
2019-05-26T19:10:38.032Z,5
2019-05-26T19:11:38.026Z,5